sensor_id;sensor_type;location;lat;lon;timestamp;P1;durP1;ratioP1;P2;durP2;ratioP2
50906;SDS011;36882;27.680;85.304;2023-12-28T00:01:15;44.42;;;26.63;;
50906;SDS011;36882;27.680;85.304;2023-12-28T00:04:27;45.65;;;27.30;;
50906;SDS011;36882;27.680;85.304;2023-12-28T00:07:40;52.13;;;28.05;;
50906;SDS011;36882;27.680;85.304;2023-12-28T00:10:52;50.38;;;27.27;;
50906;SDS011;36882;27.680;85.304;2023-12-28T00:14:06;50.97;;;28.23;;
50906;SDS011;36882;27.680;85.304;2023-12-28T00:17:18;37.55;;;26.35;;
50906;SDS011;36882;27.680;85.304;2023-12-28T00:20:33;52.47;;;28.33;;
50906;SDS011;36882;27.680;85.304;2023-12-28T00:23:46;47.28;;;28.33;;
50906;SDS011;36882;27.680;85.304;2023-12-28T00:27:01;50.88;;;28.73;;
50906;SDS011;36882;27.680;85.304;2023-12-28T00:30:14;52.42;;;28.83;;
50906;SDS011;36882;27.680;85.304;2023-12-28T00:33:27;46.17;;;29.98;;
50906;SDS011;36882;27.680;85.304;2023-12-28T00:36:41;52.20;;;29.83;;
50906;SDS011;36882;27.680;85.304;2023-12-28T00:39:53;51.47;;;29.67;;
50906;SDS011;36882;27.680;85.304;2023-12-28T00:43:05;44.33;;;30.10;;
50906;SDS011;36882;27.680;85.304;2023-12-28T00:46:18;54.78;;;29.17;;
50906;SDS011;36882;27.680;85.304;2023-12-28T00:49:30;48.47;;;29.70;;
50906;SDS011;36882;27.680;85.304;2023-12-28T00:52:43;48.55;;;28.88;;
50906;SDS011;36882;27.680;85.304;2023-12-28T00:55:56;49.35;;;30.45;;
50906;SDS011;36882;27.680;85.304;2023-12-28T00:59:08;59.17;;;31.65;;
50906;SDS011;36882;27.680;85.304;2023-12-28T01:02:20;48.00;;;30.77;;
50906;SDS011;36882;27.680;85.304;2023-12-28T01:05:32;54.63;;;28.95;;
50906;SDS011;36882;27.680;85.304;2023-12-28T01:08:44;51.47;;;30.55;;
50906;SDS011;36882;27.680;85.304;2023-12-28T01:11:57;48.92;;;31.25;;
50906;SDS011;36882;27.680;85.304;2023-12-28T01:15:09;52.50;;;32.55;;
50906;SDS011;36882;27.680;85.304;2023-12-28T01:18:22;60.33;;;31.98;;
50906;SDS011;36882;27.680;85.304;2023-12-28T01:21:35;50.53;;;32.90;;
50906;SDS011;36882;27.680;85.304;2023-12-28T01:24:48;61.60;;;37.60;;
50906;SDS011;36882;27.680;85.304;2023-12-28T01:28:01;53.55;;;36.90;;
50906;SDS011;36882;27.680;85.304;2023-12-28T01:31:13;59.53;;;38.83;;
50906;SDS011;36882;27.680;85.304;2023-12-28T01:34:25;78.47;;;42.20;;
50906;SDS011;36882;27.680;85.304;2023-12-28T01:37:38;66.60;;;39.78;;
50906;SDS011;36882;27.680;85.304;2023-12-28T01:40:51;76.10;;;43.92;;
50906;SDS011;36882;27.680;85.304;2023-12-28T01:44:03;75.43;;;42.55;;
50906;SDS011;36882;27.680;85.304;2023-12-28T01:47:15;80.10;;;48.38;;
50906;SDS011;36882;27.680;85.304;2023-12-28T01:50:29;85.93;;;49.60;;
50906;SDS011;36882;27.680;85.304;2023-12-28T01:53:45;80.00;;;50.40;;
50906;SDS011;36882;27.680;85.304;2023-12-28T01:56:59;78.13;;;45.00;;
50906;SDS011;36882;27.680;85.304;2023-12-28T02:00:12;67.75;;;41.20;;
50906;SDS011;36882;27.680;85.304;2023-12-28T02:03:24;75.15;;;41.42;;
50906;SDS011;36882;27.680;85.304;2023-12-28T02:06:37;75.80;;;37.63;;
50906;SDS011;36882;27.680;85.304;2023-12-28T02:09:49;56.30;;;35.22;;
50906;SDS011;36882;27.680;85.304;2023-12-28T02:13:02;65.05;;;37.63;;
50906;SDS011;36882;27.680;85.304;2023-12-28T02:16:17;86.65;;;46.78;;
50906;SDS011;36882;27.680;85.304;2023-12-28T02:19:49;88.60;;;48.28;;
50906;SDS011;36882;27.680;85.304;2023-12-28T02:22:21;88.07;;;48.80;;
50906;SDS011;36882;27.680;85.304;2023-12-28T02:25:35;80.40;;;50.03;;
50906;SDS011;36882;27.680;85.304;2023-12-28T02:28:51;84.03;;;49.55;;
50906;SDS011;36882;27.680;85.304;2023-12-28T02:32:04;72.55;;;46.80;;
50906;SDS011;36882;27.680;85.304;2023-12-28T02:35:23;75.38;;;44.13;;
50906;SDS011;36882;27.680;85.304;2023-12-28T02:38:37;84.78;;;45.90;;
50906;SDS011;36882;27.680;85.304;2023-12-28T02:41:52;72.32;;;44.78;;
50906;SDS011;36882;27.680;85.304;2023-12-28T02:45:06;75.25;;;47.88;;
50906;SDS011;36882;27.680;85.304;2023-12-28T02:48:19;76.65;;;44.97;;
50906;SDS011;36882;27.680;85.304;2023-12-28T02:51:32;73.50;;;45.78;;
50906;SDS011;36882;27.680;85.304;2023-12-28T02:54:47;78.30;;;46.03;;
50906;SDS011;36882;27.680;85.304;2023-12-28T02:58:00;82.20;;;58.65;;
50906;SDS011;36882;27.680;85.304;2023-12-28T03:01:12;107.18;;;68.55;;
50906;SDS011;36882;27.680;85.304;2023-12-28T03:04:25;102.82;;;70.55;;
50906;SDS011;36882;27.680;85.304;2023-12-28T03:07:39;92.10;;;56.63;;
50906;SDS011;36882;27.680;85.304;2023-12-28T03:10:52;86.38;;;47.38;;
50906;SDS011;36882;27.680;85.304;2023-12-28T03:14:05;75.35;;;42.13;;
50906;SDS011;36882;27.680;85.304;2023-12-28T03:17:17;67.63;;;43.83;;
50906;SDS011;36882;27.680;85.304;2023-12-28T03:20:31;72.15;;;43.70;;
50906;SDS011;36882;27.680;85.304;2023-12-28T03:23:44;73.22;;;44.10;;
50906;SDS011;36882;27.680;85.304;2023-12-28T03:26:57;81.13;;;46.40;;
50906;SDS011;36882;27.680;85.304;2023-12-28T03:30:10;92.88;;;66.18;;
50906;SDS011;36882;27.680;85.304;2023-12-28T03:33:23;103.93;;;63.63;;
50906;SDS011;36882;27.680;85.304;2023-12-28T03:36:36;92.38;;;54.08;;
50906;SDS011;36882;27.680;85.304;2023-12-28T03:39:48;85.80;;;53.30;;
50906;SDS011;36882;27.680;85.304;2023-12-28T03:43:01;94.68;;;54.92;;
50906;SDS011;36882;27.680;85.304;2023-12-28T03:46:14;89.75;;;59.67;;
50906;SDS011;36882;27.680;85.304;2023-12-28T03:49:26;81.00;;;51.63;;
50906;SDS011;36882;27.680;85.304;2023-12-28T03:52:44;89.78;;;52.90;;
50906;SDS011;36882;27.680;85.304;2023-12-28T03:55:56;83.05;;;52.40;;
50906;SDS011;36882;27.680;85.304;2023-12-28T03:59:12;75.97;;;50.95;;
50906;SDS011;36882;27.680;85.304;2023-12-28T04:02:25;74.80;;;51.55;;
50906;SDS011;36882;27.680;85.304;2023-12-28T04:05:38;77.70;;;55.30;;
50906;SDS011;36882;27.680;85.304;2023-12-28T04:08:50;87.40;;;55.72;;
50906;SDS011;36882;27.680;85.304;2023-12-28T04:12:03;83.57;;;53.67;;
50906;SDS011;36882;27.680;85.304;2023-12-28T04:15:19;88.57;;;57.72;;
50906;SDS011;36882;27.680;85.304;2023-12-28T04:17:54;82.85;;;58.05;;
50906;SDS011;36882;27.680;85.304;2023-12-28T04:21:55;87.28;;;56.38;;
50906;SDS011;36882;27.680;85.304;2023-12-28T04:25:09;82.70;;;55.17;;
50906;SDS011;36882;27.680;85.304;2023-12-28T04:28:22;78.22;;;54.42;;
50906;SDS011;36882;27.680;85.304;2023-12-28T04:31:39;82.65;;;58.13;;
50906;SDS011;36882;27.680;85.304;2023-12-28T04:34:53;80.53;;;56.92;;
50906;SDS011;36882;27.680;85.304;2023-12-28T04:38:08;95.53;;;62.08;;
50906;SDS011;36882;27.680;85.304;2023-12-28T04:41:20;94.25;;;60.97;;
50906;SDS011;36882;27.680;85.304;2023-12-28T04:44:37;83.65;;;55.58;;
50906;SDS011;36882;27.680;85.304;2023-12-28T04:47:51;91.75;;;63.38;;
50906;SDS011;36882;27.680;85.304;2023-12-28T04:51:08;91.45;;;67.28;;
50906;SDS011;36882;27.680;85.304;2023-12-28T04:54:21;92.75;;;61.30;;
50906;SDS011;36882;27.680;85.304;2023-12-28T04:57:34;84.85;;;58.42;;
50906;SDS011;36882;27.680;85.304;2023-12-28T05:00:47;85.05;;;60.60;;
50906;SDS011;36882;27.680;85.304;2023-12-28T05:04:01;84.95;;;57.35;;
50906;SDS011;36882;27.680;85.304;2023-12-28T05:07:15;94.75;;;61.63;;
50906;SDS011;36882;27.680;85.304;2023-12-28T05:10:29;96.65;;;64.30;;
50906;SDS011;36882;27.680;85.304;2023-12-28T05:13:42;95.47;;;63.53;;
50906;SDS011;36882;27.680;85.304;2023-12-28T05:16:57;104.88;;;63.75;;
50906;SDS011;36882;27.680;85.304;2023-12-28T05:20:10;98.70;;;68.43;;
50906;SDS011;36882;27.680;85.304;2023-12-28T05:23:24;102.07;;;69.45;;
50906;SDS011;36882;27.680;85.304;2023-12-28T05:26:37;94.90;;;66.82;;
50906;SDS011;36882;27.680;85.304;2023-12-28T05:29:50;75.97;;;49.60;;
50906;SDS011;36882;27.680;85.304;2023-12-28T05:33:05;64.75;;;43.92;;
50906;SDS011;36882;27.680;85.304;2023-12-28T05:38:51;67.60;;;44.75;;
50906;SDS011;36882;27.680;85.304;2023-12-28T05:41:48;69.93;;;47.03;;
50906;SDS011;36882;27.680;85.304;2023-12-28T05:44:59;75.10;;;49.63;;
50906;SDS011;36882;27.680;85.304;2023-12-28T05:48:11;66.57;;;45.17;;
50906;SDS011;36882;27.680;85.304;2023-12-28T05:51:22;51.65;;;35.25;;
50906;SDS011;36882;27.680;85.304;2023-12-28T05:54:34;46.58;;;34.10;;
50906;SDS011;36882;27.680;85.304;2023-12-28T05:57:45;52.50;;;36.22;;
50906;SDS011;36882;27.680;85.304;2023-12-28T06:00:16;54.97;;;36.58;;
50906;SDS011;36882;27.680;85.304;2023-12-28T06:03:28;53.08;;;33.75;;
50906;SDS011;36882;27.680;85.304;2023-12-28T06:06:40;59.65;;;41.58;;
50906;SDS011;36882;27.680;85.304;2023-12-28T06:09:51;58.03;;;38.58;;
50906;SDS011;36882;27.680;85.304;2023-12-28T06:14:26;67.70;;;38.72;;
50906;SDS011;36882;27.680;85.304;2023-12-28T06:16:56;59.20;;;41.10;;
50906;SDS011;36882;27.680;85.304;2023-12-28T06:19:28;61.25;;;42.53;;
50906;SDS011;36882;27.680;85.304;2023-12-28T06:21:59;63.95;;;43.20;;
50906;SDS011;36882;27.680;85.304;2023-12-28T06:24:29;61.72;;;43.22;;
50906;SDS011;36882;27.680;85.304;2023-12-28T06:29:30;65.10;;;45.88;;
50906;SDS011;36882;27.680;85.304;2023-12-28T06:32:02;60.15;;;42.47;;
50906;SDS011;36882;27.680;85.304;2023-12-28T06:34:32;58.65;;;42.15;;
50906;SDS011;36882;27.680;85.304;2023-12-28T06:37:03;63.92;;;42.45;;
50906;SDS011;36882;27.680;85.304;2023-12-28T06:39:33;56.03;;;39.00;;
50906;SDS011;36882;27.680;85.304;2023-12-28T06:42:05;44.10;;;27.60;;
50906;SDS011;36882;27.680;85.304;2023-12-28T06:47:08;37.13;;;25.35;;
50906;SDS011;36882;27.680;85.304;2023-12-28T06:49:39;35.72;;;22.52;;
50906;SDS011;36882;27.680;85.304;2023-12-28T06:59:14;27.38;;;19.83;;
50906;SDS011;36882;27.680;85.304;2023-12-28T07:01:45;34.55;;;19.48;;
50906;SDS011;36882;27.680;85.304;2023-12-28T07:04:17;27.67;;;18.95;;
50906;SDS011;36882;27.680;85.304;2023-12-28T07:06:47;24.73;;;18.60;;
50906;SDS011;36882;27.680;85.304;2023-12-28T07:09:18;25.05;;;16.50;;
50906;SDS011;36882;27.680;85.304;2023-12-28T07:11:48;26.42;;;15.57;;
50906;SDS011;36882;27.680;85.304;2023-12-28T07:16:48;27.33;;;13.63;;
50906;SDS011;36882;27.680;85.304;2023-12-28T07:19:19;23.35;;;15.98;;
50906;SDS011;36882;27.680;85.304;2023-12-28T07:21:50;23.08;;;15.05;;
50906;SDS011;36882;27.680;85.304;2023-12-28T07:24:20;24.98;;;16.20;;
50906;SDS011;36882;27.680;85.304;2023-12-28T07:26:52;24.35;;;16.75;;
50906;SDS011;36882;27.680;85.304;2023-12-28T07:29:22;23.30;;;16.85;;
50906;SDS011;36882;27.680;85.304;2023-12-28T07:31:53;26.20;;;17.08;;
50906;SDS011;36882;27.680;85.304;2023-12-28T07:34:25;33.85;;;20.20;;
50906;SDS011;36882;27.680;85.304;2023-12-28T07:36:56;32.08;;;21.65;;
50906;SDS011;36882;27.680;85.304;2023-12-28T07:39:27;26.55;;;19.98;;
50906;SDS011;36882;27.680;85.304;2023-12-28T07:41:57;37.65;;;21.42;;
50906;SDS011;36882;27.680;85.304;2023-12-28T07:44:28;28.27;;;20.27;;
50906;SDS011;36882;27.680;85.304;2023-12-28T07:46:59;35.30;;;22.92;;
50906;SDS011;36882;27.680;85.304;2023-12-28T07:49:30;30.63;;;21.58;;
50906;SDS011;36882;27.680;85.304;2023-12-28T07:52:01;38.55;;;22.10;;
50906;SDS011;36882;27.680;85.304;2023-12-28T07:54:32;36.50;;;21.27;;
50906;SDS011;36882;27.680;85.304;2023-12-28T07:57:02;40.05;;;21.02;;
50906;SDS011;36882;27.680;85.304;2023-12-28T07:59:33;25.17;;;19.38;;
50906;SDS011;36882;27.680;85.304;2023-12-28T08:02:03;34.20;;;19.88;;
50906;SDS011;36882;27.680;85.304;2023-12-28T08:04:34;29.90;;;19.38;;
50906;SDS011;36882;27.680;85.304;2023-12-28T08:07:04;30.13;;;18.50;;
50906;SDS011;36882;27.680;85.304;2023-12-28T08:09:35;29.55;;;18.08;;
50906;SDS011;36882;27.680;85.304;2023-12-28T08:12:06;24.08;;;17.95;;
50906;SDS011;36882;27.680;85.304;2023-12-28T08:17:06;32.67;;;18.23;;
50906;SDS011;36882;27.680;85.304;2023-12-28T08:19:36;23.50;;;17.05;;
50906;SDS011;36882;27.680;85.304;2023-12-28T08:22:07;23.90;;;18.17;;
50906;SDS011;36882;27.680;85.304;2023-12-28T08:27:07;26.05;;;17.90;;
50906;SDS011;36882;27.680;85.304;2023-12-28T08:29:39;26.23;;;18.33;;
50906;SDS011;36882;27.680;85.304;2023-12-28T08:32:11;29.58;;;19.25;;
50906;SDS011;36882;27.680;85.304;2023-12-28T08:34:42;35.63;;;19.55;;
50906;SDS011;36882;27.680;85.304;2023-12-28T08:37:13;30.63;;;18.83;;
50906;SDS011;36882;27.680;85.304;2023-12-28T08:39:43;35.33;;;20.42;;
50906;SDS011;36882;27.680;85.304;2023-12-28T08:42:14;32.85;;;20.55;;
50906;SDS011;36882;27.680;85.304;2023-12-28T08:49:45;43.33;;;21.30;;
50906;SDS011;36882;27.680;85.304;2023-12-28T08:52:15;24.58;;;17.95;;
50906;SDS011;36882;27.680;85.304;2023-12-28T08:54:47;31.23;;;18.77;;
50906;SDS011;36882;27.680;85.304;2023-12-28T08:59:58;21.88;;;15.80;;
50906;SDS011;36882;27.680;85.304;2023-12-28T09:02:32;25.40;;;16.60;;
50906;SDS011;36882;27.680;85.304;2023-12-28T09:05:02;31.77;;;17.63;;
50906;SDS011;36882;27.680;85.304;2023-12-28T09:07:33;23.60;;;16.90;;
50906;SDS011;36882;27.680;85.304;2023-12-28T09:10:05;21.40;;;15.55;;
50906;SDS011;36882;27.680;85.304;2023-12-28T09:12:35;27.35;;;16.15;;
50906;SDS011;36882;27.680;85.304;2023-12-28T09:15:06;22.83;;;14.60;;
50906;SDS011;36882;27.680;85.304;2023-12-28T09:17:37;25.42;;;15.25;;
50906;SDS011;36882;27.680;85.304;2023-12-28T09:20:08;23.35;;;16.08;;
50906;SDS011;36882;27.680;85.304;2023-12-28T09:22:41;25.50;;;13.57;;
50906;SDS011;36882;27.680;85.304;2023-12-28T09:25:12;26.67;;;14.15;;
50906;SDS011;36882;27.680;85.304;2023-12-28T09:27:46;20.52;;;15.15;;
50906;SDS011;36882;27.680;85.304;2023-12-28T09:30:16;31.80;;;16.88;;
50906;SDS011;36882;27.680;85.304;2023-12-28T09:32:47;44.03;;;20.35;;
50906;SDS011;36882;27.680;85.304;2023-12-28T09:35:18;39.65;;;25.13;;
50906;SDS011;36882;27.680;85.304;2023-12-28T09:37:48;44.58;;;25.52;;
50906;SDS011;36882;27.680;85.304;2023-12-28T09:42:51;52.63;;;24.80;;
50906;SDS011;36882;27.680;85.304;2023-12-28T09:45:25;45.38;;;25.45;;
50906;SDS011;36882;27.680;85.304;2023-12-28T09:48:02;35.38;;;23.40;;
50906;SDS011;36882;27.680;85.304;2023-12-28T09:50:34;44.35;;;24.45;;
50906;SDS011;36882;27.680;85.304;2023-12-28T09:53:05;41.83;;;25.48;;
50906;SDS011;36882;27.680;85.304;2023-12-28T09:55:36;81.38;;;25.92;;
50906;SDS011;36882;27.680;85.304;2023-12-28T09:58:06;70.55;;;26.08;;
50906;SDS011;36882;27.680;85.304;2023-12-28T10:00:37;54.13;;;25.58;;
50906;SDS011;36882;27.680;85.304;2023-12-28T10:03:08;43.28;;;26.67;;
50906;SDS011;36882;27.680;85.304;2023-12-28T10:05:40;64.80;;;37.00;;
50906;SDS011;36882;27.680;85.304;2023-12-28T10:08:11;61.58;;;38.13;;
50906;SDS011;36882;27.680;85.304;2023-12-28T10:10:43;57.75;;;31.75;;
50906;SDS011;36882;27.680;85.304;2023-12-28T10:13:22;68.72;;;40.80;;
50906;SDS011;36882;27.680;85.304;2023-12-28T10:15:57;58.05;;;33.83;;
50906;SDS011;36882;27.680;85.304;2023-12-28T10:18:29;52.28;;;29.73;;
50906;SDS011;36882;27.680;85.304;2023-12-28T10:20:59;52.80;;;33.97;;
50906;SDS011;36882;27.680;85.304;2023-12-28T10:23:30;43.88;;;26.77;;
50906;SDS011;36882;27.680;85.304;2023-12-28T10:26:00;47.25;;;28.70;;
50906;SDS011;36882;27.680;85.304;2023-12-28T10:28:36;82.75;;;59.25;;
50906;SDS011;36882;27.680;85.304;2023-12-28T10:31:10;57.95;;;37.58;;
50906;SDS011;36882;27.680;85.304;2023-12-28T10:33:41;71.80;;;42.70;;
50906;SDS011;36882;27.680;85.304;2023-12-28T10:36:15;55.10;;;32.20;;
50906;SDS011;36882;27.680;85.304;2023-12-28T10:38:46;51.60;;;30.73;;
50906;SDS011;36882;27.680;85.304;2023-12-28T10:41:17;55.05;;;33.90;;
50906;SDS011;36882;27.680;85.304;2023-12-28T10:44:05;49.05;;;25.42;;
50906;SDS011;36882;27.680;85.304;2023-12-28T10:46:39;56.10;;;27.98;;
50906;SDS011;36882;27.680;85.304;2023-12-28T10:49:15;52.40;;;34.40;;
50906;SDS011;36882;27.680;85.304;2023-12-28T10:51:50;54.47;;;36.40;;
50906;SDS011;36882;27.680;85.304;2023-12-28T10:57:06;63.47;;;36.70;;
50906;SDS011;36882;27.680;85.304;2023-12-28T10:59:47;54.42;;;32.83;;
50906;SDS011;36882;27.680;85.304;2023-12-28T11:02:21;56.05;;;32.40;;
50906;SDS011;36882;27.680;85.304;2023-12-28T11:04:52;73.35;;;37.42;;
50906;SDS011;36882;27.680;85.304;2023-12-28T11:07:24;166.95;;;41.42;;
50906;SDS011;36882;27.680;85.304;2023-12-28T11:10:02;150.98;;;36.83;;
50906;SDS011;36882;27.680;85.304;2023-12-28T11:12:34;148.07;;;35.53;;
50906;SDS011;36882;27.680;85.304;2023-12-28T11:15:05;63.83;;;28.90;;
50906;SDS011;36882;27.680;85.304;2023-12-28T11:17:37;66.40;;;28.60;;
50906;SDS011;36882;27.680;85.304;2023-12-28T11:20:08;63.45;;;31.92;;
50906;SDS011;36882;27.680;85.304;2023-12-28T11:22:39;61.70;;;34.45;;
50906;SDS011;36882;27.680;85.304;2023-12-28T11:25:17;49.75;;;30.15;;
50906;SDS011;36882;27.680;85.304;2023-12-28T11:27:47;61.15;;;32.72;;
50906;SDS011;36882;27.680;85.304;2023-12-28T11:30:18;58.92;;;33.50;;
50906;SDS011;36882;27.680;85.304;2023-12-28T11:32:48;85.63;;;51.40;;
50906;SDS011;36882;27.680;85.304;2023-12-28T11:35:19;57.53;;;36.35;;
50906;SDS011;36882;27.680;85.304;2023-12-28T11:40:19;50.25;;;29.83;;
50906;SDS011;36882;27.680;85.304;2023-12-28T11:42:55;53.80;;;33.17;;
50906;SDS011;36882;27.680;85.304;2023-12-28T11:45:26;45.55;;;31.67;;
50906;SDS011;36882;27.680;85.304;2023-12-28T11:48:00;56.78;;;33.47;;
50906;SDS011;36882;27.680;85.304;2023-12-28T11:50:31;63.40;;;35.15;;
50906;SDS011;36882;27.680;85.304;2023-12-28T11:53:02;59.42;;;35.78;;
50906;SDS011;36882;27.680;85.304;2023-12-28T11:55:33;43.17;;;28.17;;
50906;SDS011;36882;27.680;85.304;2023-12-28T12:00:33;65.68;;;42.97;;
50906;SDS011;36882;27.680;85.304;2023-12-28T12:03:04;77.13;;;44.95;;
50906;SDS011;36882;27.680;85.304;2023-12-28T12:05:35;78.53;;;53.90;;
50906;SDS011;36882;27.680;85.304;2023-12-28T12:08:06;87.28;;;55.17;;
50906;SDS011;36882;27.680;85.304;2023-12-28T12:10:42;96.65;;;54.25;;
50906;SDS011;36882;27.680;85.304;2023-12-28T12:13:13;81.55;;;49.63;;
50906;SDS011;36882;27.680;85.304;2023-12-28T12:15:44;72.28;;;44.90;;
50906;SDS011;36882;27.680;85.304;2023-12-28T12:18:14;64.38;;;40.20;;
50906;SDS011;36882;27.680;85.304;2023-12-28T12:20:45;78.40;;;43.72;;
50906;SDS011;36882;27.680;85.304;2023-12-28T12:25:45;61.17;;;39.43;;
50906;SDS011;36882;27.680;85.304;2023-12-28T12:30:53;53.10;;;34.97;;
50906;SDS011;36882;27.680;85.304;2023-12-28T12:33:25;45.08;;;31.90;;
50906;SDS011;36882;27.680;85.304;2023-12-28T12:35:56;55.70;;;35.00;;
50906;SDS011;36882;27.680;85.304;2023-12-28T12:38:26;58.60;;;41.20;;
50906;SDS011;36882;27.680;85.304;2023-12-28T12:43:26;67.67;;;35.63;;
50906;SDS011;36882;27.680;85.304;2023-12-28T12:45:57;58.78;;;38.83;;
50906;SDS011;36882;27.680;85.304;2023-12-28T12:48:29;63.35;;;36.38;;
50906;SDS011;36882;27.680;85.304;2023-12-28T12:51:04;55.25;;;35.70;;
50906;SDS011;36882;27.680;85.304;2023-12-28T12:53:35;53.78;;;34.63;;
50906;SDS011;36882;27.680;85.304;2023-12-28T12:56:07;61.28;;;36.22;;
50906;SDS011;36882;27.680;85.304;2023-12-28T12:58:37;67.07;;;38.60;;
50906;SDS011;36882;27.680;85.304;2023-12-28T13:01:10;78.15;;;44.67;;
50906;SDS011;36882;27.680;85.304;2023-12-28T13:03:41;68.70;;;45.47;;
50906;SDS011;36882;27.680;85.304;2023-12-28T13:06:14;71.13;;;46.25;;
50906;SDS011;36882;27.680;85.304;2023-12-28T13:08:45;81.60;;;43.92;;
50906;SDS011;36882;27.680;85.304;2023-12-28T13:13:45;69.78;;;40.92;;
50906;SDS011;36882;27.680;85.304;2023-12-28T13:16:15;67.18;;;39.47;;
50906;SDS011;36882;27.680;85.304;2023-12-28T13:18:46;62.45;;;39.10;;
50906;SDS011;36882;27.680;85.304;2023-12-28T13:21:16;58.80;;;36.35;;
50906;SDS011;36882;27.680;85.304;2023-12-28T13:26:17;60.00;;;32.70;;
50906;SDS011;36882;27.680;85.304;2023-12-28T13:28:48;56.83;;;35.97;;
50906;SDS011;36882;27.680;85.304;2023-12-28T13:33:48;68.90;;;38.47;;
50906;SDS011;36882;27.680;85.304;2023-12-28T13:36:18;65.88;;;39.35;;
50906;SDS011;36882;27.680;85.304;2023-12-28T13:38:49;67.65;;;38.78;;
50906;SDS011;36882;27.680;85.304;2023-12-28T13:41:20;60.20;;;38.97;;
50906;SDS011;36882;27.680;85.304;2023-12-28T13:43:54;66.07;;;39.90;;
50906;SDS011;36882;27.680;85.304;2023-12-28T13:46:33;68.80;;;42.70;;
50906;SDS011;36882;27.680;85.304;2023-12-28T13:49:09;73.82;;;46.40;;
50906;SDS011;36882;27.680;85.304;2023-12-28T13:51:40;66.75;;;46.97;;
50906;SDS011;36882;27.680;85.304;2023-12-28T13:54:10;68.10;;;42.97;;
50906;SDS011;36882;27.680;85.304;2023-12-28T13:56:40;70.05;;;45.47;;
50906;SDS011;36882;27.680;85.304;2023-12-28T13:59:11;76.47;;;45.50;;
50906;SDS011;36882;27.680;85.304;2023-12-28T14:01:41;77.47;;;47.05;;
50906;SDS011;36882;27.680;85.304;2023-12-28T14:04:12;67.13;;;44.05;;
50906;SDS011;36882;27.680;85.304;2023-12-28T14:06:43;68.97;;;43.63;;
50906;SDS011;36882;27.680;85.304;2023-12-28T14:09:14;65.85;;;44.75;;
50906;SDS011;36882;27.680;85.304;2023-12-28T14:11:48;63.67;;;41.42;;
50906;SDS011;36882;27.680;85.304;2023-12-28T14:16:49;61.95;;;40.75;;
50906;SDS011;36882;27.680;85.304;2023-12-28T14:24:20;73.53;;;41.90;;
50906;SDS011;36882;27.680;85.304;2023-12-28T14:26:52;60.10;;;39.67;;
50906;SDS011;36882;27.680;85.304;2023-12-28T14:29:23;64.85;;;41.33;;
50906;SDS011;36882;27.680;85.304;2023-12-28T14:31:54;72.28;;;42.10;;
50906;SDS011;36882;27.680;85.304;2023-12-28T14:34:26;68.28;;;44.40;;
50906;SDS011;36882;27.680;85.304;2023-12-28T14:36:57;72.78;;;44.13;;
50906;SDS011;36882;27.680;85.304;2023-12-28T14:41:58;70.95;;;48.72;;
50906;SDS011;36882;27.680;85.304;2023-12-28T14:44:32;79.28;;;49.95;;
50906;SDS011;36882;27.680;85.304;2023-12-28T14:47:02;85.72;;;55.22;;
50906;SDS011;36882;27.680;85.304;2023-12-28T14:49:33;101.95;;;59.10;;
50906;SDS011;36882;27.680;85.304;2023-12-28T14:52:04;99.15;;;56.63;;
50906;SDS011;36882;27.680;85.304;2023-12-28T14:57:06;95.97;;;56.42;;
50906;SDS011;36882;27.680;85.304;2023-12-28T14:59:36;98.63;;;60.72;;
50906;SDS011;36882;27.680;85.304;2023-12-28T15:02:07;101.18;;;59.42;;
50906;SDS011;36882;27.680;85.304;2023-12-28T15:04:37;87.78;;;61.75;;
50906;SDS011;36882;27.680;85.304;2023-12-28T15:07:10;84.22;;;55.55;;
50906;SDS011;36882;27.680;85.304;2023-12-28T15:09:41;85.35;;;54.45;;
50906;SDS011;36882;27.680;85.304;2023-12-28T15:12:11;76.40;;;51.28;;
50906;SDS011;36882;27.680;85.304;2023-12-28T15:14:42;77.03;;;51.72;;
50906;SDS011;36882;27.680;85.304;2023-12-28T15:19:43;76.63;;;49.85;;
50906;SDS011;36882;27.680;85.304;2023-12-28T15:22:14;72.78;;;47.75;;
50906;SDS011;36882;27.680;85.304;2023-12-28T15:27:14;79.93;;;51.47;;
50906;SDS011;36882;27.680;85.304;2023-12-28T15:29:44;79.55;;;50.25;;
50906;SDS011;36882;27.680;85.304;2023-12-28T15:32:15;82.75;;;52.42;;
50906;SDS011;36882;27.680;85.304;2023-12-28T15:37:16;71.90;;;47.25;;
50906;SDS011;36882;27.680;85.304;2023-12-28T15:39:46;71.07;;;46.85;;
50906;SDS011;36882;27.680;85.304;2023-12-28T15:42:16;66.47;;;43.53;;
50906;SDS011;36882;27.680;85.304;2023-12-28T15:44:52;65.43;;;40.90;;
50906;SDS011;36882;27.680;85.304;2023-12-28T15:47:23;71.25;;;46.50;;
50906;SDS011;36882;27.680;85.304;2023-12-28T15:49:56;75.72;;;45.17;;
50906;SDS011;36882;27.680;85.304;2023-12-28T15:52:26;74.88;;;47.75;;
50906;SDS011;36882;27.680;85.304;2023-12-28T15:54:57;71.28;;;46.55;;
50906;SDS011;36882;27.680;85.304;2023-12-28T15:57:28;80.68;;;49.38;;
50906;SDS011;36882;27.680;85.304;2023-12-28T15:59:58;84.18;;;49.78;;
50906;SDS011;36882;27.680;85.304;2023-12-28T16:02:29;82.82;;;51.92;;
50906;SDS011;36882;27.680;85.304;2023-12-28T16:05:00;82.68;;;51.35;;
50906;SDS011;36882;27.680;85.304;2023-12-28T16:07:30;72.05;;;46.38;;
50906;SDS011;36882;27.680;85.304;2023-12-28T16:12:30;84.60;;;47.43;;
50906;SDS011;36882;27.680;85.304;2023-12-28T16:15:01;79.05;;;51.25;;
50906;SDS011;36882;27.680;85.304;2023-12-28T16:17:31;81.80;;;49.38;;
50906;SDS011;36882;27.680;85.304;2023-12-28T16:20:03;73.95;;;48.20;;
50906;SDS011;36882;27.680;85.304;2023-12-28T16:22:33;76.30;;;48.50;;
50906;SDS011;36882;27.680;85.304;2023-12-28T16:25:04;89.57;;;48.53;;
50906;SDS011;36882;27.680;85.304;2023-12-28T16:27:37;85.45;;;47.55;;
50906;SDS011;36882;27.680;85.304;2023-12-28T16:30:10;70.32;;;46.70;;
50906;SDS011;36882;27.680;85.304;2023-12-28T16:32:41;70.55;;;45.92;;
50906;SDS011;36882;27.680;85.304;2023-12-28T16:35:13;82.63;;;45.83;;
50906;SDS011;36882;27.680;85.304;2023-12-28T16:37:44;65.05;;;43.60;;
50906;SDS011;36882;27.680;85.304;2023-12-28T16:40:14;68.15;;;41.67;;
50906;SDS011;36882;27.680;85.304;2023-12-28T16:45:17;67.57;;;42.80;;
50906;SDS011;36882;27.680;85.304;2023-12-28T16:47:50;70.10;;;43.97;;
50906;SDS011;36882;27.680;85.304;2023-12-28T16:50:20;81.47;;;48.20;;
50906;SDS011;36882;27.680;85.304;2023-12-28T16:52:55;78.88;;;49.45;;
50906;SDS011;36882;27.680;85.304;2023-12-28T16:57:56;75.90;;;46.17;;
50906;SDS011;36882;27.680;85.304;2023-12-28T17:00:28;75.03;;;49.65;;
50906;SDS011;36882;27.680;85.304;2023-12-28T17:02:58;74.07;;;48.72;;
50906;SDS011;36882;27.680;85.304;2023-12-28T17:05:29;85.85;;;51.92;;
50906;SDS011;36882;27.680;85.304;2023-12-28T17:08:00;87.68;;;51.63;;
50906;SDS011;36882;27.680;85.304;2023-12-28T17:10:30;93.25;;;54.08;;
50906;SDS011;36882;27.680;85.304;2023-12-28T17:13:01;88.13;;;51.40;;
50906;SDS011;36882;27.680;85.304;2023-12-28T17:15:31;91.68;;;50.40;;